sensor_id;sensor_type;location;lat;lon;timestamp;temperature;humidity
44705;DHT22;30431;48.520;9.046;2023-07-31T00:01:00;13.10;99.90
44705;DHT22;30431;48.520;9.046;2023-07-31T00:03:27;13.00;99.90
44705;DHT22;30431;48.520;9.046;2023-07-31T00:05:54;13.00;99.90
44705;DHT22;30431;48.520;9.046;2023-07-31T00:08:21;13.00;99.90
44705;DHT22;30431;48.520;9.046;2023-07-31T00:10:51;13.00;99.90
44705;DHT22;30431;48.520;9.046;2023-07-31T00:13:21;13.00;99.90
44705;DHT22;30431;48.520;9.046;2023-07-31T00:15:51;13.00;99.90
44705;DHT22;30431;48.520;9.046;2023-07-31T00:18:18;13.00;99.90
44705;DHT22;30431;48.520;9.046;2023-07-31T00:20:45;13.00;99.90
44705;DHT22;30431;48.520;9.046;2023-07-31T00:23:14;13.00;99.90
44705;DHT22;30431;48.520;9.046;2023-07-31T00:25:41;13.00;99.90
44705;DHT22;30431;48.520;9.046;2023-07-31T00:28:08;12.90;99.90
44705;DHT22;30431;48.520;9.046;2023-07-31T00:30:35;12.90;99.90
44705;DHT22;30431;48.520;9.046;2023-07-31T00:33:04;12.80;99.90
44705;DHT22;30431;48.520;9.046;2023-07-31T00:35:36;12.80;99.90
44705;DHT22;30431;48.520;9.046;2023-07-31T00:38:05;12.70;99.90
44705;DHT22;30431;48.520;9.046;2023-07-31T00:40:38;12.70;99.90
44705;DHT22;30431;48.520;9.046;2023-07-31T00:43:05;12.70;99.90
44705;DHT22;30431;48.520;9.046;2023-07-31T00:45:36;12.70;99.90
44705;DHT22;30431;48.520;9.046;2023-07-31T00:48:04;12.70;99.90
44705;DHT22;30431;48.520;9.046;2023-07-31T00:50:34;12.70;99.90
44705;DHT22;30431;48.520;9.046;2023-07-31T00:53:04;12.60;99.90
44705;DHT22;30431;48.520;9.046;2023-07-31T00:58:21;12.50;99.90
44705;DHT22;30431;48.520;9.046;2023-07-31T01:00:49;12.50;99.90
44705;DHT22;30431;48.520;9.046;2023-07-31T01:03:17;12.40;99.90
44705;DHT22;30431;48.520;9.046;2023-07-31T01:11:14;12.30;99.90
44705;DHT22;30431;48.520;9.046;2023-07-31T01:13:44;12.30;99.90
44705;DHT22;30431;48.520;9.046;2023-07-31T01:16:11;12.30;99.90
44705;DHT22;30431;48.520;9.046;2023-07-31T01:18:41;12.30;99.90
44705;DHT22;30431;48.520;9.046;2023-07-31T01:21:50;12.30;99.90
44705;DHT22;30431;48.520;9.046;2023-07-31T01:29:45;12.00;99.90
44705;DHT22;30431;48.520;9.046;2023-07-31T01:32:14;12.00;99.90
44705;DHT22;30431;48.520;9.046;2023-07-31T01:34:45;12.00;99.90
44705;DHT22;30431;48.520;9.046;2023-07-31T01:37:13;11.90;99.90
44705;DHT22;30431;48.520;9.046;2023-07-31T01:39:43;11.90;99.90
44705;DHT22;30431;48.520;9.046;2023-07-31T01:42:10;11.80;99.90
44705;DHT22;30431;48.520;9.046;2023-07-31T01:44:37;11.80;99.90
44705;DHT22;30431;48.520;9.046;2023-07-31T01:47:05;11.80;99.90
44705;DHT22;30431;48.520;9.046;2023-07-31T01:49:35;11.80;99.90
44705;DHT22;30431;48.520;9.046;2023-07-31T01:52:02;11.80;99.90
44705;DHT22;30431;48.520;9.046;2023-07-31T01:54:31;11.80;99.90
44705;DHT22;30431;48.520;9.046;2023-07-31T01:57:03;11.80;99.90
44705;DHT22;30431;48.520;9.046;2023-07-31T01:59:33;11.80;99.90
44705;DHT22;30431;48.520;9.046;2023-07-31T02:02:00;11.90;99.90
44705;DHT22;30431;48.520;9.046;2023-07-31T02:04:30;11.90;99.90
44705;DHT22;30431;48.520;9.046;2023-07-31T02:06:59;11.90;99.90
44705;DHT22;30431;48.520;9.046;2023-07-31T02:09:26;11.80;99.90
44705;DHT22;30431;48.520;9.046;2023-07-31T02:11:55;11.80;99.90
44705;DHT22;30431;48.520;9.046;2023-07-31T02:14:22;11.70;99.90
44705;DHT22;30431;48.520;9.046;2023-07-31T02:16:51;11.70;99.90
44705;DHT22;30431;48.520;9.046;2023-07-31T02:19:21;11.80;99.90
44705;DHT22;30431;48.520;9.046;2023-07-31T02:21:48;11.80;99.90
44705;DHT22;30431;48.520;9.046;2023-07-31T02:24:15;11.80;99.90
44705;DHT22;30431;48.520;9.046;2023-07-31T02:26:44;11.70;99.90
44705;DHT22;30431;48.520;9.046;2023-07-31T02:29:13;11.80;99.90
44705;DHT22;30431;48.520;9.046;2023-07-31T02:31:40;11.80;99.90
44705;DHT22;30431;48.520;9.046;2023-07-31T02:34:07;11.90;99.90
44705;DHT22;30431;48.520;9.046;2023-07-31T02:36:36;11.90;99.90
44705;DHT22;30431;48.520;9.046;2023-07-31T02:39:04;11.90;99.90
44705;DHT22;30431;48.520;9.046;2023-07-31T02:41:33;12.00;99.90
44705;DHT22;30431;48.520;9.046;2023-07-31T02:44:03;12.00;99.90
44705;DHT22;30431;48.520;9.046;2023-07-31T02:46:30;12.00;99.90
44705;DHT22;30431;48.520;9.046;2023-07-31T02:48:59;12.00;99.90
44705;DHT22;30431;48.520;9.046;2023-07-31T02:51:29;12.10;99.90
44705;DHT22;30431;48.520;9.046;2023-07-31T02:53:56;12.10;99.90
44705;DHT22;30431;48.520;9.046;2023-07-31T02:56:25;12.00;99.90
44705;DHT22;30431;48.520;9.046;2023-07-31T02:58:52;12.00;99.90
44705;DHT22;30431;48.520;9.046;2023-07-31T03:01:19;11.90;99.90
44705;DHT22;30431;48.520;9.046;2023-07-31T03:03:46;11.90;99.90
44705;DHT22;30431;48.520;9.046;2023-07-31T03:06:13;11.80;99.90
44705;DHT22;30431;48.520;9.046;2023-07-31T03:08:42;11.80;99.90
44705;DHT22;30431;48.520;9.046;2023-07-31T03:11:12;11.80;99.90
44705;DHT22;30431;48.520;9.046;2023-07-31T03:13:39;11.70;99.90
44705;DHT22;30431;48.520;9.046;2023-07-31T03:16:06;11.70;99.90
44705;DHT22;30431;48.520;9.046;2023-07-31T03:18:35;11.80;99.90
44705;DHT22;30431;48.520;9.046;2023-07-31T03:21:02;11.90;99.90
44705;DHT22;30431;48.520;9.046;2023-07-31T03:23:29;12.00;99.90
44705;DHT22;30431;48.520;9.046;2023-07-31T03:26:03;12.00;99.90
44705;DHT22;30431;48.520;9.046;2023-07-31T03:28:32;12.00;99.90
44705;DHT22;30431;48.520;9.046;2023-07-31T03:30:59;12.00;99.90
44705;DHT22;30431;48.520;9.046;2023-07-31T03:33:27;12.00;99.90
44705;DHT22;30431;48.520;9.046;2023-07-31T03:35:54;12.00;99.90
44705;DHT22;30431;48.520;9.046;2023-07-31T03:38:21;12.00;99.90
44705;DHT22;30431;48.520;9.046;2023-07-31T03:40:48;12.00;99.90
44705;DHT22;30431;48.520;9.046;2023-07-31T03:43:15;11.90;99.90
44705;DHT22;30431;48.520;9.046;2023-07-31T03:45:42;11.90;99.90
44705;DHT22;30431;48.520;9.046;2023-07-31T03:48:10;11.80;99.90
44705;DHT22;30431;48.520;9.046;2023-07-31T03:50:38;11.80;99.90
44705;DHT22;30431;48.520;9.046;2023-07-31T03:53:09;11.70;99.90
44705;DHT22;30431;48.520;9.046;2023-07-31T03:55:36;11.70;99.90
44705;DHT22;30431;48.520;9.046;2023-07-31T03:58:05;11.70;99.90
44705;DHT22;30431;48.520;9.046;2023-07-31T04:00:34;11.70;99.90
44705;DHT22;30431;48.520;9.046;2023-07-31T04:03:01;11.70;99.90
44705;DHT22;30431;48.520;9.046;2023-07-31T04:05:33;11.90;99.90
44705;DHT22;30431;48.520;9.046;2023-07-31T04:08:00;12.10;99.90
44705;DHT22;30431;48.520;9.046;2023-07-31T04:10:29;12.20;99.90
44705;DHT22;30431;48.520;9.046;2023-07-31T04:13:00;12.30;99.90
44705;DHT22;30431;48.520;9.046;2023-07-31T04:15:27;12.30;99.90
44705;DHT22;30431;48.520;9.046;2023-07-31T04:17:54;12.30;99.90
44705;DHT22;30431;48.520;9.046;2023-07-31T04:20:21;12.40;99.90
44705;DHT22;30431;48.520;9.046;2023-07-31T04:22:49;12.60;99.90
44705;DHT22;30431;48.520;9.046;2023-07-31T04:25:18;12.70;99.90
44705;DHT22;30431;48.520;9.046;2023-07-31T04:27:45;12.80;99.90
44705;DHT22;30431;48.520;9.046;2023-07-31T04:30:13;12.80;99.90
44705;DHT22;30431;48.520;9.046;2023-07-31T04:32:42;12.90;99.90
44705;DHT22;30431;48.520;9.046;2023-07-31T04:35:13;13.10;99.90
44705;DHT22;30431;48.520;9.046;2023-07-31T04:37:40;13.20;99.90
44705;DHT22;30431;48.520;9.046;2023-07-31T04:40:08;13.30;99.90
44705;DHT22;30431;48.520;9.046;2023-07-31T04:42:38;13.30;99.90
44705;DHT22;30431;48.520;9.046;2023-07-31T04:45:05;13.50;99.90
44705;DHT22;30431;48.520;9.046;2023-07-31T04:47:32;13.70;99.90
44705;DHT22;30431;48.520;9.046;2023-07-31T04:49:59;13.80;99.90
44705;DHT22;30431;48.520;9.046;2023-07-31T04:52:26;13.80;99.90
44705;DHT22;30431;48.520;9.046;2023-07-31T04:54:53;13.90;99.90
44705;DHT22;30431;48.520;9.046;2023-07-31T04:57:20;13.90;99.90
44705;DHT22;30431;48.520;9.046;2023-07-31T04:59:49;13.80;99.90
44705;DHT22;30431;48.520;9.046;2023-07-31T05:02:17;14.00;99.90
44705;DHT22;30431;48.520;9.046;2023-07-31T05:04:44;14.00;99.90
44705;DHT22;30431;48.520;9.046;2023-07-31T05:07:13;14.10;99.90
44705;DHT22;30431;48.520;9.046;2023-07-31T05:09:46;14.20;99.90
44705;DHT22;30431;48.520;9.046;2023-07-31T05:12:13;14.30;99.90
44705;DHT22;30431;48.520;9.046;2023-07-31T05:14:43;14.40;99.90
44705;DHT22;30431;48.520;9.046;2023-07-31T05:17:12;14.50;99.90
44705;DHT22;30431;48.520;9.046;2023-07-31T05:19:39;14.70;99.90
44705;DHT22;30431;48.520;9.046;2023-07-31T05:22:07;14.80;99.90
44705;DHT22;30431;48.520;9.046;2023-07-31T05:24:34;15.10;99.90
44705;DHT22;30431;48.520;9.046;2023-07-31T05:27:01;15.40;99.90
44705;DHT22;30431;48.520;9.046;2023-07-31T05:29:28;15.60;99.90
44705;DHT22;30431;48.520;9.046;2023-07-31T05:31:57;15.70;99.90
44705;DHT22;30431;48.520;9.046;2023-07-31T05:34:27;15.90;99.90
44705;DHT22;30431;48.520;9.046;2023-07-31T05:36:54;16.10;99.90
44705;DHT22;30431;48.520;9.046;2023-07-31T05:39:20;16.40;99.90
44705;DHT22;30431;48.520;9.046;2023-07-31T05:41:50;16.10;99.90
44705;DHT22;30431;48.520;9.046;2023-07-31T05:44:17;15.90;99.90
44705;DHT22;30431;48.520;9.046;2023-07-31T05:46:46;15.90;99.90
44705;DHT22;30431;48.520;9.046;2023-07-31T05:49:13;16.20;99.90
44705;DHT22;30431;48.520;9.046;2023-07-31T05:51:42;16.60;99.90
44705;DHT22;30431;48.520;9.046;2023-07-31T05:54:13;16.70;99.90
44705;DHT22;30431;48.520;9.046;2023-07-31T05:56:40;16.80;99.90
44705;DHT22;30431;48.520;9.046;2023-07-31T05:59:09;17.00;99.90
44705;DHT22;30431;48.520;9.046;2023-07-31T06:01:41;16.90;99.90
44705;DHT22;30431;48.520;9.046;2023-07-31T06:04:10;17.10;99.90
44705;DHT22;30431;48.520;9.046;2023-07-31T06:06:40;17.10;99.90
44705;DHT22;30431;48.520;9.046;2023-07-31T06:09:07;17.20;99.90
44705;DHT22;30431;48.520;9.046;2023-07-31T06:11:34;17.20;99.90
44705;DHT22;30431;48.520;9.046;2023-07-31T06:14:04;17.30;99.90
44705;DHT22;30431;48.520;9.046;2023-07-31T06:16:32;17.20;99.90
44705;DHT22;30431;48.520;9.046;2023-07-31T06:18:59;17.20;99.90
44705;DHT22;30431;48.520;9.046;2023-07-31T06:21:28;17.00;99.90
44705;DHT22;30431;48.520;9.046;2023-07-31T06:23:59;17.00;99.90
44705;DHT22;30431;48.520;9.046;2023-07-31T06:26:37;17.10;99.90
44705;DHT22;30431;48.520;9.046;2023-07-31T06:29:07;17.10;99.90
44705;DHT22;30431;48.520;9.046;2023-07-31T06:31:34;17.10;99.90
44705;DHT22;30431;48.520;9.046;2023-07-31T06:34:01;17.20;99.90
44705;DHT22;30431;48.520;9.046;2023-07-31T06:36:31;17.50;99.90
44705;DHT22;30431;48.520;9.046;2023-07-31T06:39:12;18.00;99.90
44705;DHT22;30431;48.520;9.046;2023-07-31T06:41:39;18.40;99.90
44705;DHT22;30431;48.520;9.046;2023-07-31T06:44:10;18.90;98.20
44705;DHT22;30431;48.520;9.046;2023-07-31T06:46:38;19.30;96.90
44705;DHT22;30431;48.520;9.046;2023-07-31T06:49:05;19.30;96.20
44705;DHT22;30431;48.520;9.046;2023-07-31T06:51:34;19.30;95.90
44705;DHT22;30431;48.520;9.046;2023-07-31T06:54:02;19.30;94.80
44705;DHT22;30431;48.520;9.046;2023-07-31T06:56:29;19.20;94.10
44705;DHT22;30431;48.520;9.046;2023-07-31T06:58:59;19.20;94.30
44705;DHT22;30431;48.520;9.046;2023-07-31T07:01:28;19.60;94.80
44705;DHT22;30431;48.520;9.046;2023-07-31T07:03:55;19.40;93.80
44705;DHT22;30431;48.520;9.046;2023-07-31T07:06:22;19.30;93.60
44705;DHT22;30431;48.520;9.046;2023-07-31T07:08:49;19.00;93.30
44705;DHT22;30431;48.520;9.046;2023-07-31T07:11:18;19.10;94.30
44705;DHT22;30431;48.520;9.046;2023-07-31T07:13:48;19.50;94.20
44705;DHT22;30431;48.520;9.046;2023-07-31T07:16:16;19.40;93.90
44705;DHT22;30431;48.520;9.046;2023-07-31T07:18:43;19.60;93.20
44705;DHT22;30431;48.520;9.046;2023-07-31T07:21:26;19.80;92.50
44705;DHT22;30431;48.520;9.046;2023-07-31T07:23:53;19.90;91.30
44705;DHT22;30431;48.520;9.046;2023-07-31T07:26:20;20.30;90.80
44705;DHT22;30431;48.520;9.046;2023-07-31T07:28:47;20.40;90.80
44705;DHT22;30431;48.520;9.046;2023-07-31T07:31:16;20.50;89.90
44705;DHT22;30431;48.520;9.046;2023-07-31T07:33:43;20.80;89.90
44705;DHT22;30431;48.520;9.046;2023-07-31T07:36:13;20.50;89.00
44705;DHT22;30431;48.520;9.046;2023-07-31T07:38:40;20.30;90.00
44705;DHT22;30431;48.520;9.046;2023-07-31T07:41:08;20.60;89.40
44705;DHT22;30431;48.520;9.046;2023-07-31T07:43:37;20.40;87.30
44705;DHT22;30431;48.520;9.046;2023-07-31T07:46:06;20.20;89.00
44705;DHT22;30431;48.520;9.046;2023-07-31T07:48:36;20.40;88.30
44705;DHT22;30431;48.520;9.046;2023-07-31T07:51:03;20.30;89.20
44705;DHT22;30431;48.520;9.046;2023-07-31T07:53:29;20.60;87.00
44705;DHT22;30431;48.520;9.046;2023-07-31T07:55:56;20.80;86.50
44705;DHT22;30431;48.520;9.046;2023-07-31T07:58:23;20.90;81.60
44705;DHT22;30431;48.520;9.046;2023-07-31T08:00:53;21.10;81.90
44705;DHT22;30431;48.520;9.046;2023-07-31T08:03:25;21.20;83.30
44705;DHT22;30431;48.520;9.046;2023-07-31T08:05:58;21.40;82.10
44705;DHT22;30431;48.520;9.046;2023-07-31T08:08:25;21.30;79.00
44705;DHT22;30431;48.520;9.046;2023-07-31T08:10:52;21.00;78.60
44705;DHT22;30431;48.520;9.046;2023-07-31T08:13:19;21.00;79.70
44705;DHT22;30431;48.520;9.046;2023-07-31T08:15:48;21.10;76.60
44705;DHT22;30431;48.520;9.046;2023-07-31T08:18:19;21.30;76.60
44705;DHT22;30431;48.520;9.046;2023-07-31T08:20:46;21.10;76.60
44705;DHT22;30431;48.520;9.046;2023-07-31T08:23:13;21.50;74.70
44705;DHT22;30431;48.520;9.046;2023-07-31T08:25:41;21.50;74.20
44705;DHT22;30431;48.520;9.046;2023-07-31T08:28:08;21.30;74.40
44705;DHT22;30431;48.520;9.046;2023-07-31T08:30:37;21.30;75.80
44705;DHT22;30431;48.520;9.046;2023-07-31T08:33:07;21.50;76.50
44705;DHT22;30431;48.520;9.046;2023-07-31T08:35:36;21.80;75.80
44705;DHT22;30431;48.520;9.046;2023-07-31T08:38:03;22.00;74.00
44705;DHT22;30431;48.520;9.046;2023-07-31T08:40:36;21.80;71.70
44705;DHT22;30431;48.520;9.046;2023-07-31T08:43:07;22.20;70.90
44705;DHT22;30431;48.520;9.046;2023-07-31T08:45:34;22.30;71.20
44705;DHT22;30431;48.520;9.046;2023-07-31T08:48:01;22.40;71.70
44705;DHT22;30431;48.520;9.046;2023-07-31T08:50:33;22.20;72.00
44705;DHT22;30431;48.520;9.046;2023-07-31T08:53:00;22.40;73.60
44705;DHT22;30431;48.520;9.046;2023-07-31T08:55:30;22.70;71.10
44705;DHT22;30431;48.520;9.046;2023-07-31T08:57:58;23.20;70.30
44705;DHT22;30431;48.520;9.046;2023-07-31T09:00:26;23.60;70.80
44705;DHT22;30431;48.520;9.046;2023-07-31T09:05:30;23.10;69.70
44705;DHT22;30431;48.520;9.046;2023-07-31T09:08:26;23.00;68.40
44705;DHT22;30431;48.520;9.046;2023-07-31T09:11:00;22.40;69.60
44705;DHT22;30431;48.520;9.046;2023-07-31T09:13:29;22.40;70.80
44705;DHT22;30431;48.520;9.046;2023-07-31T09:15:57;22.30;71.20
44705;DHT22;30431;48.520;9.046;2023-07-31T09:18:27;22.40;70.10
44705;DHT22;30431;48.520;9.046;2023-07-31T09:21:04;22.60;70.20
44705;DHT22;30431;48.520;9.046;2023-07-31T09:23:42;23.20;70.40
44705;DHT22;30431;48.520;9.046;2023-07-31T09:26:11;23.80;67.20
44705;DHT22;30431;48.520;9.046;2023-07-31T09:28:38;23.90;69.40
44705;DHT22;30431;48.520;9.046;2023-07-31T09:31:05;24.20;65.20
44705;DHT22;30431;48.520;9.046;2023-07-31T09:33:32;24.50;63.30
44705;DHT22;30431;48.520;9.046;2023-07-31T09:36:04;24.50;64.40
44705;DHT22;30431;48.520;9.046;2023-07-31T09:38:31;24.00;64.10
44705;DHT22;30431;48.520;9.046;2023-07-31T09:40:59;23.90;63.60
44705;DHT22;30431;48.520;9.046;2023-07-31T09:43:27;23.80;63.10
44705;DHT22;30431;48.520;9.046;2023-07-31T09:45:55;23.70;64.60
44705;DHT22;30431;48.520;9.046;2023-07-31T09:48:25;24.20;62.50
44705;DHT22;30431;48.520;9.046;2023-07-31T09:50:55;24.30;61.10
44705;DHT22;30431;48.520;9.046;2023-07-31T09:53:28;24.70;62.80
44705;DHT22;30431;48.520;9.046;2023-07-31T09:55:58;24.20;62.20
44705;DHT22;30431;48.520;9.046;2023-07-31T09:58:28;24.30;62.00
44705;DHT22;30431;48.520;9.046;2023-07-31T10:00:57;24.30;61.70
44705;DHT22;30431;48.520;9.046;2023-07-31T10:03:25;23.60;62.20
44705;DHT22;30431;48.520;9.046;2023-07-31T10:05:55;23.20;62.70
44705;DHT22;30431;48.520;9.046;2023-07-31T10:08:28;23.00;65.50
44705;DHT22;30431;48.520;9.046;2023-07-31T10:10:59;23.20;64.40
44705;DHT22;30431;48.520;9.046;2023-07-31T10:13:28;23.20;66.10
44705;DHT22;30431;48.520;9.046;2023-07-31T10:16:00;23.10;64.80
44705;DHT22;30431;48.520;9.046;2023-07-31T10:18:28;23.20;64.00
44705;DHT22;30431;48.520;9.046;2023-07-31T10:20:56;22.80;64.70
44705;DHT22;30431;48.520;9.046;2023-07-31T10:23:24;22.80;65.50
44705;DHT22;30431;48.520;9.046;2023-07-31T10:25:54;22.80;65.40
44705;DHT22;30431;48.520;9.046;2023-07-31T10:28:22;22.80;65.60
44705;DHT22;30431;48.520;9.046;2023-07-31T10:30:51;23.00;65.10
44705;DHT22;30431;48.520;9.046;2023-07-31T10:33:22;23.00;64.90
44705;DHT22;30431;48.520;9.046;2023-07-31T10:35:49;23.10;65.20
44705;DHT22;30431;48.520;9.046;2023-07-31T10:38:18;23.00;65.40
44705;DHT22;30431;48.520;9.046;2023-07-31T10:40:49;23.00;64.10
44705;DHT22;30431;48.520;9.046;2023-07-31T10:43:26;23.10;64.00
44705;DHT22;30431;48.520;9.046;2023-07-31T10:45:54;23.00;64.60
44705;DHT22;30431;48.520;9.046;2023-07-31T10:48:21;23.40;64.50
44705;DHT22;30431;48.520;9.046;2023-07-31T10:53:28;23.80;62.00
44705;DHT22;30431;48.520;9.046;2023-07-31T10:56:03;23.90;62.30
44705;DHT22;30431;48.520;9.046;2023-07-31T10:58:33;23.80;62.00
44705;DHT22;30431;48.520;9.046;2023-07-31T11:01:03;24.00;62.50
44705;DHT22;30431;48.520;9.046;2023-07-31T11:03:45;24.30;61.10
44705;DHT22;30431;48.520;9.046;2023-07-31T11:06:14;24.50;61.20
44705;DHT22;30431;48.520;9.046;2023-07-31T11:08:49;24.90;61.70
44705;DHT22;30431;48.520;9.046;2023-07-31T11:11:19;24.90;59.70
44705;DHT22;30431;48.520;9.046;2023-07-31T11:13:52;25.20;59.40
44705;DHT22;30431;48.520;9.046;2023-07-31T11:16:21;25.20;58.50
44705;DHT22;30431;48.520;9.046;2023-07-31T11:18:50;25.70;55.90
44705;DHT22;30431;48.520;9.046;2023-07-31T11:21:23;26.60;57.10
44705;DHT22;30431;48.520;9.046;2023-07-31T11:23:56;27.40;55.30
44705;DHT22;30431;48.520;9.046;2023-07-31T11:26:29;27.40;54.80
44705;DHT22;30431;48.520;9.046;2023-07-31T11:28:58;27.00;52.00
44705;DHT22;30431;48.520;9.046;2023-07-31T11:31:27;27.50;53.00
44705;DHT22;30431;48.520;9.046;2023-07-31T11:34:09;27.70;51.90
44705;DHT22;30431;48.520;9.046;2023-07-31T11:36:39;27.50;51.80
44705;DHT22;30431;48.520;9.046;2023-07-31T11:39:10;26.80;52.60
44705;DHT22;30431;48.520;9.046;2023-07-31T11:41:40;26.80;54.70
44705;DHT22;30431;48.520;9.046;2023-07-31T11:44:10;26.80;54.00
44705;DHT22;30431;48.520;9.046;2023-07-31T11:46:56;26.50;53.90
44705;DHT22;30431;48.520;9.046;2023-07-31T11:49:26;26.10;54.50
44705;DHT22;30431;48.520;9.046;2023-07-31T11:51:55;26.50;54.50
44705;DHT22;30431;48.520;9.046;2023-07-31T11:54:27;26.40;54.00
44705;DHT22;30431;48.520;9.046;2023-07-31T11:56:53;26.20;53.50
44705;DHT22;30431;48.520;9.046;2023-07-31T11:59:21;25.50;54.30
44705;DHT22;30431;48.520;9.046;2023-07-31T12:01:50;25.00;56.90
44705;DHT22;30431;48.520;9.046;2023-07-31T12:04:20;24.80;58.70
44705;DHT22;30431;48.520;9.046;2023-07-31T12:06:48;24.50;59.00
44705;DHT22;30431;48.520;9.046;2023-07-31T12:09:17;24.30;63.00
44705;DHT22;30431;48.520;9.046;2023-07-31T12:11:47;24.30;64.90
44705;DHT22;30431;48.520;9.046;2023-07-31T12:14:27;24.40;62.00
44705;DHT22;30431;48.520;9.046;2023-07-31T12:17:16;24.30;63.40
44705;DHT22;30431;48.520;9.046;2023-07-31T12:19:48;24.30;65.70
44705;DHT22;30431;48.520;9.046;2023-07-31T12:22:16;24.50;66.40
44705;DHT22;30431;48.520;9.046;2023-07-31T12:24:45;24.20;63.40
44705;DHT22;30431;48.520;9.046;2023-07-31T12:27:13;24.20;64.10
44705;DHT22;30431;48.520;9.046;2023-07-31T12:29:41;24.00;62.70
44705;DHT22;30431;48.520;9.046;2023-07-31T12:34:47;24.30;61.70
44705;DHT22;30431;48.520;9.046;2023-07-31T12:37:14;24.40;61.00
44705;DHT22;30431;48.520;9.046;2023-07-31T12:39:41;24.90;61.90
44705;DHT22;30431;48.520;9.046;2023-07-31T12:42:10;25.10;59.10
44705;DHT22;30431;48.520;9.046;2023-07-31T12:44:37;25.50;59.00
44705;DHT22;30431;48.520;9.046;2023-07-31T12:47:04;25.70;58.10
44705;DHT22;30431;48.520;9.046;2023-07-31T12:49:34;25.70;56.90
44705;DHT22;30431;48.520;9.046;2023-07-31T12:52:03;26.00;56.70
44705;DHT22;30431;48.520;9.046;2023-07-31T12:54:30;26.10;58.10
44705;DHT22;30431;48.520;9.046;2023-07-31T12:56:57;26.40;56.10
44705;DHT22;30431;48.520;9.046;2023-07-31T12:59:27;26.10;55.50
44705;DHT22;30431;48.520;9.046;2023-07-31T13:02:01;25.70;57.10
44705;DHT22;30431;48.520;9.046;2023-07-31T13:04:27;25.60;57.60
44705;DHT22;30431;48.520;9.046;2023-07-31T13:06:56;25.40;57.40
44705;DHT22;30431;48.520;9.046;2023-07-31T13:09:22;25.70;58.20
44705;DHT22;30431;48.520;9.046;2023-07-31T13:11:52;25.60;56.80
44705;DHT22;30431;48.520;9.046;2023-07-31T13:14:23;25.70;57.70
44705;DHT22;30431;48.520;9.046;2023-07-31T13:16:50;25.40;56.70
44705;DHT22;30431;48.520;9.046;2023-07-31T13:19:17;25.40;56.30
44705;DHT22;30431;48.520;9.046;2023-07-31T13:21:46;25.70;57.10
44705;DHT22;30431;48.520;9.046;2023-07-31T13:24:13;25.80;56.20
44705;DHT22;30431;48.520;9.046;2023-07-31T13:26:41;25.90;56.10
44705;DHT22;30431;48.520;9.046;2023-07-31T13:29:08;25.70;55.40
44705;DHT22;30431;48.520;9.046;2023-07-31T13:31:35;25.50;55.50
44705;DHT22;30431;48.520;9.046;2023-07-31T13:34:02;25.10;55.40
44705;DHT22;30431;48.520;9.046;2023-07-31T13:36:29;24.80;56.30
44705;DHT22;30431;48.520;9.046;2023-07-31T13:38:56;24.50;57.40
44705;DHT22;30431;48.520;9.046;2023-07-31T13:41:24;24.10;58.10
44705;DHT22;30431;48.520;9.046;2023-07-31T13:43:50;23.80;59.60
44705;DHT22;30431;48.520;9.046;2023-07-31T13:46:17;23.50;60.30
44705;DHT22;30431;48.520;9.046;2023-07-31T13:48:44;23.20;60.50
44705;DHT22;30431;48.520;9.046;2023-07-31T13:51:14;22.90;61.70
44705;DHT22;30431;48.520;9.046;2023-07-31T13:53:41;22.90;61.90
44705;DHT22;30431;48.520;9.046;2023-07-31T13:56:08;22.80;61.90
44705;DHT22;30431;48.520;9.046;2023-07-31T13:58:35;22.70;61.70
44705;DHT22;30431;48.520;9.046;2023-07-31T14:01:02;22.70;62.70
44705;DHT22;30431;48.520;9.046;2023-07-31T14:03:32;22.80;62.30
44705;DHT22;30431;48.520;9.046;2023-07-31T14:06:04;22.80;62.50
44705;DHT22;30431;48.520;9.046;2023-07-31T14:08:36;22.90;62.10
44705;DHT22;30431;48.520;9.046;2023-07-31T14:11:03;23.00;62.50
44705;DHT22;30431;48.520;9.046;2023-07-31T14:13:30;23.20;63.40
44705;DHT22;30431;48.520;9.046;2023-07-31T14:15:57;23.20;62.60
44705;DHT22;30431;48.520;9.046;2023-07-31T14:18:24;23.20;63.60
44705;DHT22;30431;48.520;9.046;2023-07-31T14:21:02;23.40;63.30
44705;DHT22;30431;48.520;9.046;2023-07-31T14:23:32;23.50;62.70
44705;DHT22;30431;48.520;9.046;2023-07-31T14:26:01;23.50;62.70
44705;DHT22;30431;48.520;9.046;2023-07-31T14:28:28;23.30;63.10
44705;DHT22;30431;48.520;9.046;2023-07-31T14:30:57;23.10;63.90
44705;DHT22;30431;48.520;9.046;2023-07-31T14:33:25;23.10;64.60
44705;DHT22;30431;48.520;9.046;2023-07-31T14:35:52;23.10;62.90
44705;DHT22;30431;48.520;9.046;2023-07-31T14:38:19;23.10;63.00
44705;DHT22;30431;48.520;9.046;2023-07-31T14:40:46;23.20;63.00
44705;DHT22;30431;48.520;9.046;2023-07-31T14:43:13;23.10;62.60
44705;DHT22;30431;48.520;9.046;2023-07-31T14:45:40;23.20;62.90
44705;DHT22;30431;48.520;9.046;2023-07-31T14:48:07;23.30;62.10
44705;DHT22;30431;48.520;9.046;2023-07-31T14:50:36;23.40;62.20
44705;DHT22;30431;48.520;9.046;2023-07-31T14:53:03;23.30;62.40
44705;DHT22;30431;48.520;9.046;2023-07-31T14:55:32;23.10;62.40
44705;DHT22;30431;48.520;9.046;2023-07-31T14:58:02;23.00;63.70
44705;DHT22;30431;48.520;9.046;2023-07-31T15:00:29;22.80;63.50
44705;DHT22;30431;48.520;9.046;2023-07-31T15:02:58;22.70;64.40
44705;DHT22;30431;48.520;9.046;2023-07-31T15:05:26;22.60;64.00
44705;DHT22;30431;48.520;9.046;2023-07-31T15:07:53;22.60;65.20
44705;DHT22;30431;48.520;9.046;2023-07-31T15:10:22;22.70;65.30
44705;DHT22;30431;48.520;9.046;2023-07-31T15:12:54;22.90;64.40
44705;DHT22;30431;48.520;9.046;2023-07-31T15:15:23;23.00;63.90
44705;DHT22;30431;48.520;9.046;2023-07-31T15:17:50;23.20;64.80
44705;DHT22;30431;48.520;9.046;2023-07-31T15:20:17;23.30;64.90
44705;DHT22;30431;48.520;9.046;2023-07-31T15:22:44;23.40;65.20
44705;DHT22;30431;48.520;9.046;2023-07-31T15:25:11;23.60;65.30
44705;DHT22;30431;48.520;9.046;2023-07-31T15:27:38;23.80;64.00
44705;DHT22;30431;48.520;9.046;2023-07-31T15:30:08;23.90;63.40
44705;DHT22;30431;48.520;9.046;2023-07-31T15:32:38;23.90;63.10
44705;DHT22;30431;48.520;9.046;2023-07-31T15:35:06;23.70;63.70
44705;DHT22;30431;48.520;9.046;2023-07-31T15:37:36;23.60;64.20
44705;DHT22;30431;48.520;9.046;2023-07-31T15:40:06;23.40;64.20
44705;DHT22;30431;48.520;9.046;2023-07-31T15:42:35;23.30;65.30
44705;DHT22;30431;48.520;9.046;2023-07-31T15:45:07;23.50;65.40
44705;DHT22;30431;48.520;9.046;2023-07-31T15:47:36;23.50;66.10
44705;DHT22;30431;48.520;9.046;2023-07-31T15:50:03;23.50;64.80
44705;DHT22;30431;48.520;9.046;2023-07-31T15:52:30;23.40;64.80
44705;DHT22;30431;48.520;9.046;2023-07-31T15:54:59;23.60;65.00
44705;DHT22;30431;48.520;9.046;2023-07-31T15:57:26;23.80;65.20
44705;DHT22;30431;48.520;9.046;2023-07-31T15:59:56;23.90;65.10
44705;DHT22;30431;48.520;9.046;2023-07-31T16:02:23;23.80;64.70